Time;durP1;ratioP1;P1;durP2;ratioP2;P2;SDS_P1;SDS_P2;PMS_P1;PMS_P2;Temp;Humidity;BMP_temperature;BMP_pressure;BME280_temperature;BME280_humidity;BME280_pressure;Samples;Min_cycle;Max_cycle;Signal;HPM_P1;HPM_P2
2022/05/08 00:01:38;;;;;;;44.30;21.37;;;13.70;35.70;;;;;;5050910;28;20579;-58
2022/05/08 00:04:05;;;;;;;45.10;23.00;;;13.70;35.90;;;;;;5043500;28;20458;-59
2022/05/08 00:06:33;;;;;;;44.17;22.43;;;13.70;36.10;;;;;;5042363;28;20477;-56
2022/05/08 00:09:00;;;;;;;45.67;22.83;;;13.60;36.10;;;;;;5048355;28;20458;-57
2022/05/08 00:11:27;;;;;;;47.37;22.73;;;13.60;36.10;;;;;;5051378;28;20464;-60
2022/05/08 00:13:54;;;;;;;46.57;22.83;;;13.60;36.20;;;;;;5045854;28;21019;-56
2022/05/08 00:16:21;;;;;;;45.40;22.73;;;13.60;36.30;;;;;;5037709;28;20469;-59
2022/05/08 00:18:48;;;;;;;48.23;23.17;;;13.60;36.30;;;;;;5044274;28;20470;-57
2022/05/08 00:21:15;;;;;;;47.23;23.00;;;13.50;36.50;;;;;;5049266;28;20474;-58
2022/05/08 00:23:43;;;;;;;52.97;24.40;;;13.50;36.70;;;;;;5054561;28;20468;-58
2022/05/08 00:26:09;;;;;;;49.00;24.10;;;13.40;36.70;;;;;;5042440;28;20478;-58
2022/05/08 00:28:38;;;;;;;47.20;23.00;;;13.40;36.80;;;;;;5042902;28;20968;-61
2022/05/08 00:31:05;;;;;;;49.17;23.10;;;13.40;36.90;;;;;;5048277;28;20976;-58
2022/05/08 00:33:32;;;;;;;44.57;21.87;;;13.40;36.90;;;;;;5046429;28;20563;-58
2022/05/08 00:35:59;;;;;;;48.20;23.07;;;13.30;37.00;;;;;;5045542;28;20493;-59
2022/05/08 00:38:26;;;;;;;45.97;22.27;;;13.30;37.20;;;;;;5046628;28;20528;-59
2022/05/08 00:40:54;;;;;;;47.30;22.60;;;13.30;37.40;;;;;;5047391;28;20458;-61
2022/05/08 00:43:31;;;;;;;46.70;23.00;;;13.30;37.40;;;;;;5043943;28;20493;-59
2022/05/08 00:45:58;;;;;;;46.97;24.07;;;13.20;37.50;;;;;;5047074;28;20503;-58
2022/05/08 00:48:25;;;;;;;48.17;22.73;;;13.20;37.50;;;;;;5042044;28;20562;-58
2022/05/08 00:50:52;;;;;;;44.60;23.60;;;13.20;37.70;;;;;;5043998;28;20470;-59
2022/05/08 00:53:19;;;;;;;47.27;23.63;;;13.20;37.40;;;;;;5045522;28;20474;-57
2022/05/08 00:55:47;;;;;;;46.83;23.73;;;13.10;37.60;;;;;;5047983;28;20481;-58
2022/05/08 00:58:16;;;;;;;50.77;22.60;;;13.10;37.70;;;;;;5047878;28;20821;-59
2022/05/08 01:00:43;;;;;;;47.50;25.17;;;13.10;38.00;;;;;;5045332;28;21007;-58
2022/05/08 01:03:11;;;;;;;45.83;22.37;;;13.10;37.70;;;;;;5044285;28;20464;-57
2022/05/08 01:05:39;;;;;;;48.50;23.87;;;13.10;37.80;;;;;;5048213;28;20489;-57
2022/05/08 01:08:06;;;;;;;46.50;21.97;;;13.10;37.70;;;;;;5048663;28;20473;-58
2022/05/08 01:10:33;;;;;;;45.80;22.00;;;13.00;37.70;;;;;;5044181;28;20461;-58
2022/05/08 01:13:01;;;;;;;46.50;22.60;;;13.00;37.70;;;;;;5044547;28;21007;-58
2022/05/08 01:15:29;;;;;;;46.57;21.57;;;13.00;37.80;;;;;;5042144;28;20504;-57
2022/05/08 01:17:56;;;;;;;47.23;21.83;;;13.00;38.10;;;;;;5048663;28;20466;-58
2022/05/08 01:20:24;;;;;;;48.40;23.20;;;13.00;38.20;;;;;;5045351;28;20470;-58
2022/05/08 01:22:52;;;;;;;47.40;22.40;;;13.00;38.00;;;;;;5041011;28;20483;-57
2022/05/08 01:25:18;;;;;;;48.27;22.40;;;13.00;38.00;;;;;;5046955;28;20488;-58
2022/05/08 01:27:46;;;;;;;48.33;21.30;;;13.00;37.90;;;;;;5044986;28;20462;-58
2022/05/08 01:30:12;;;;;;;46.07;22.00;;;12.90;38.00;;;;;;5045837;28;20535;-58
2022/05/08 01:32:39;;;;;;;45.13;22.03;;;12.90;37.90;;;;;;5037855;28;20467;-58
2022/05/08 01:35:07;;;;;;;49.47;23.50;;;12.90;38.10;;;;;;5045639;28;20489;-60
2022/05/08 01:37:33;;;;;;;47.30;21.40;;;12.90;38.30;;;;;;5049271;28;20897;-57
2022/05/08 01:40:01;;;;;;;48.20;22.10;;;12.90;38.10;;;;;;5048499;28;20469;-60
2022/05/08 01:42:28;;;;;;;46.67;23.30;;;12.80;38.30;;;;;;5037873;28;20458;-60
2022/05/08 01:44:55;;;;;;;44.97;21.40;;;12.80;38.50;;;;;;5046332;28;20473;-58
2022/05/08 01:50:07;;;;;;;46.03;22.33;;;12.80;38.40;;;;;;5051774;28;21013;-58
2022/05/08 01:52:34;;;;;;;45.70;20.90;;;12.80;38.50;;;;;;5047482;28;20462;-58
2022/05/08 01:55:03;;;;;;;46.80;22.73;;;12.70;38.50;;;;;;5046581;28;20509;-57
2022/05/08 01:57:29;;;;;;;46.00;21.13;;;12.70;38.70;;;;;;5054661;28;20497;-60
2022/05/08 01:59:56;;;;;;;44.63;21.90;;;12.70;38.60;;;;;;5050342;28;20466;-58
2022/05/08 02:02:23;;;;;;;48.13;23.07;;;12.70;38.30;;;;;;5047049;28;20721;-58
2022/05/08 02:04:50;;;;;;;45.93;23.73;;;12.80;38.20;;;;;;5009500;28;1054520;-60
2022/05/08 02:07:16;;;;;;;46.70;24.27;;;12.80;38.20;;;;;;5049439;28;20462;-58
2022/05/08 02:09:44;;;;;;;48.47;25.50;;;12.80;38.10;;;;;;5048470;28;20465;-58
2022/05/08 02:12:12;;;;;;;48.83;24.37;;;12.80;38.20;;;;;;5050865;28;20543;-58
2022/05/08 02:14:39;;;;;;;49.90;23.80;;;12.70;38.40;;;;;;5048556;28;20486;-58
2022/05/08 02:17:06;;;;;;;48.77;25.00;;;12.70;38.50;;;;;;5050323;28;20457;-59
2022/05/08 02:19:33;;;;;;;46.93;23.53;;;12.60;38.30;;;;;;5047228;28;20468;-59
2022/05/08 02:22:00;;;;;;;45.13;21.87;;;12.60;38.40;;;;;;5041454;28;20462;-59
2022/05/08 02:24:26;;;;;;;47.30;22.10;;;12.60;38.30;;;;;;5052853;28;20999;-57
2022/05/08 02:26:53;;;;;;;45.90;22.07;;;12.50;38.50;;;;;;5053925;28;20466;-58
2022/05/08 02:29:22;;;;;;;46.67;21.70;;;12.50;38.60;;;;;;5039601;28;20466;-58
2022/05/08 02:31:48;;;;;;;49.80;24.23;;;12.50;38.50;;;;;;5041003;28;20470;-59
2022/05/08 02:34:15;;;;;;;47.87;23.40;;;12.50;38.40;;;;;;5051423;28;20489;-58
2022/05/08 02:36:42;;;;;;;49.67;22.57;;;12.40;38.50;;;;;;5051952;28;20500;-58
2022/05/08 02:39:09;;;;;;;48.73;23.70;;;12.40;38.90;;;;;;5044552;28;20466;-57
2022/05/08 02:41:35;;;;;;;49.00;23.63;;;12.30;39.20;;;;;;5046553;28;20466;-57
2022/05/08 02:44:02;;;;;;;47.87;23.77;;;12.30;39.00;;;;;;5051972;28;20454;-59
2022/05/08 02:46:30;;;;;;;48.03;24.67;;;12.30;39.20;;;;;;5051933;28;20962;-57
2022/05/08 02:48:57;;;;;;;49.43;25.40;;;12.30;39.30;;;;;;5045853;28;20473;-58
2022/05/08 02:51:23;;;;;;;47.60;23.10;;;12.30;39.00;;;;;;5044968;28;20462;-59
2022/05/08 02:53:51;;;;;;;48.77;24.10;;;12.30;39.20;;;;;;5052452;28;20477;-57
2022/05/08 02:59:02;;;;;;;47.43;22.83;;;12.20;39.20;;;;;;5046992;28;20581;-59
2022/05/08 03:01:31;;;;;;;49.10;22.80;;;12.20;39.00;;;;;;5049155;28;20470;-60
2022/05/08 03:03:58;;;;;;;49.93;24.10;;;12.20;39.10;;;;;;5052594;28;20458;-58
2022/05/08 03:06:24;;;;;;;45.90;22.30;;;12.20;39.30;;;;;;5053136;28;20568;-59
2022/05/08 03:08:52;;;;;;;48.47;22.87;;;12.10;39.30;;;;;;5046635;28;20489;-57
2022/05/08 03:11:29;;;;;;;49.00;23.67;;;12.10;39.20;;;;;;5041690;28;20537;-57
2022/05/08 03:13:56;;;;;;;51.27;24.07;;;12.10;39.40;;;;;;5052868;28;20853;-58
2022/05/08 03:16:25;;;;;;;49.37;23.07;;;12.10;39.50;;;;;;5053175;28;20494;-57
2022/05/08 03:18:53;;;;;;;48.10;23.70;;;12.10;39.80;;;;;;5046747;28;20462;-58
2022/05/08 03:21:20;;;;;;;52.40;23.67;;;12.10;39.80;;;;;;5042383;28;20469;-58
2022/05/08 03:23:47;;;;;;;49.73;25.20;;;12.10;39.60;;;;;;5048500;28;21247;-57
2022/05/08 03:26:15;;;;;;;50.20;23.73;;;12.10;39.60;;;;;;5049226;28;20519;-60
2022/05/08 03:28:43;;;;;;;48.70;24.20;;;12.00;39.70;;;;;;5046040;28;20462;-60
2022/05/08 03:31:10;;;;;;;49.40;24.43;;;12.00;39.80;;;;;;5044501;28;20474;-58
2022/05/08 03:33:38;;;;;;;51.00;25.33;;;12.00;39.70;;;;;;5051176;28;20486;-58
2022/05/08 03:36:10;;;;;;;51.73;25.30;;;12.10;39.90;;;;;;5049678;28;21020;-57
2022/05/08 03:38:41;;;;;;;50.57;25.90;;;12.00;39.90;;;;;;5049822;28;20553;-58
2022/05/08 03:41:08;;;;;;;48.93;23.83;;;12.00;39.90;;;;;;5049244;28;20462;-57
2022/05/08 03:43:35;;;;;;;48.80;24.67;;;12.00;39.90;;;;;;5047239;28;20462;-59
2022/05/08 03:46:03;;;;;;;49.53;25.53;;;12.00;39.90;;;;;;5048501;28;20482;-57
2022/05/08 03:48:30;;;;;;;55.80;25.13;;;12.10;39.80;;;;;;5046605;28;20469;-58
2022/05/08 03:50:57;;;;;;;50.43;24.50;;;12.10;39.90;;;;;;5048792;28;21112;-58
2022/05/08 03:53:25;;;;;;;49.57;23.50;;;12.10;39.70;;;;;;5046337;28;20488;-59
2022/05/08 03:55:51;;;;;;;49.23;23.90;;;12.00;39.70;;;;;;5045948;28;20482;-58
2022/05/08 03:58:18;;;;;;;53.97;25.23;;;12.00;39.90;;;;;;5046706;28;20466;-60
2022/05/08 04:00:45;;;;;;;49.83;25.07;;;11.90;39.90;;;;;;5045902;28;20555;-57
2022/05/08 04:03:12;;;;;;;48.60;24.23;;;11.90;40.40;;;;;;5048775;28;20473;-59
2022/05/08 04:05:39;;;;;;;52.20;24.50;;;11.90;39.80;;;;;;5048097;28;20496;-58
2022/05/08 04:08:06;;;;;;;50.03;24.40;;;11.90;39.80;;;;;;5043613;28;20461;-57
2022/05/08 04:10:35;;;;;;;49.90;24.63;;;12.00;39.70;;;;;;5051202;28;20472;-59
2022/05/08 04:13:01;;;;;;;50.70;24.90;;;12.00;39.80;;;;;;5046222;28;20462;-58
2022/05/08 04:18:13;;;;;;;51.80;25.23;;;12.00;39.70;;;;;;5043781;28;20477;-58
2022/05/08 04:20:40;;;;;;;54.63;25.17;;;12.00;39.60;;;;;;5049714;28;20458;-58
2022/05/08 04:25:53;;;;;;;48.53;23.73;;;12.00;39.40;;;;;;5045072;28;20559;-59
2022/05/08 04:28:20;;;;;;;50.40;24.20;;;12.00;39.80;;;;;;5046022;28;20462;-59
2022/05/08 04:30:48;;;;;;;48.03;24.53;;;12.00;40.00;;;;;;5050526;28;20473;-58
2022/05/08 04:33:15;;;;;;;49.07;24.00;;;12.00;40.00;;;;;;5040474;28;20466;-57
2022/05/08 04:35:42;;;;;;;49.03;23.90;;;12.00;39.90;;;;;;5045993;28;20490;-58
2022/05/08 04:38:11;;;;;;;49.50;24.00;;;12.00;40.00;;;;;;5049665;28;20501;-58
2022/05/08 04:40:38;;;;;;;48.63;24.50;;;12.10;40.20;;;;;;5048101;28;21097;-60
2022/05/08 04:43:06;;;;;;;48.53;24.23;;;12.10;40.60;;;;;;5044692;28;20466;-56
2022/05/08 04:45:33;;;;;;;52.43;24.00;;;12.10;40.50;;;;;;5040992;28;20514;-59
2022/05/08 04:48:00;;;;;;;48.60;25.07;;;12.20;40.20;;;;;;5049480;28;20462;-58
2022/05/08 04:50:27;;;;;;;51.07;25.43;;;12.30;40.40;;;;;;5046475;28;21042;-57
2022/05/08 04:52:53;;;;;;;52.07;25.73;;;12.30;40.20;;;;;;5045470;28;20454;-58
2022/05/08 04:55:20;;;;;;;51.20;26.83;;;12.40;40.30;;;;;;5045722;28;20482;-60
2022/05/08 04:57:47;;;;;;;51.73;25.50;;;12.50;40.10;;;;;;5052526;28;20468;-57
2022/05/08 05:00:16;;;;;;;52.93;25.30;;;12.60;40.10;;;;;;5043808;28;20462;-59
2022/05/08 05:02:44;;;;;;;49.70;24.87;;;12.60;40.00;;;;;;5038906;28;20466;-58
2022/05/08 05:05:10;;;;;;;50.83;24.47;;;12.70;39.90;;;;;;5050937;28;20496;-59
2022/05/08 05:07:39;;;;;;;49.83;24.27;;;12.80;39.90;;;;;;5052900;28;20458;-60
2022/05/08 05:10:07;;;;;;;50.10;25.13;;;12.90;39.90;;;;;;5047176;28;20882;-56
2022/05/08 05:12:34;;;;;;;47.27;22.53;;;13.00;39.60;;;;;;5040675;28;21039;-57
2022/05/08 05:15:01;;;;;;;50.80;24.20;;;13.10;39.40;;;;;;5049724;28;20495;-56
2022/05/08 05:17:29;;;;;;;47.30;22.20;;;13.10;39.50;;;;;;5045750;28;20462;-59
2022/05/08 05:19:55;;;;;;;51.93;23.70;;;13.20;39.30;;;;;;5046611;28;20481;-60
2022/05/08 05:22:22;;;;;;;48.23;22.90;;;13.40;39.00;;;;;;5045076;28;20477;-58
2022/05/08 05:24:49;;;;;;;47.83;23.40;;;13.50;38.70;;;;;;5047422;28;21137;-58
2022/05/08 05:27:16;;;;;;;46.80;22.27;;;13.60;38.40;;;;;;5045144;28;20470;-60
2022/05/08 05:29:43;;;;;;;46.57;21.70;;;13.70;38.20;;;;;;5049206;28;20473;-58
2022/05/08 05:32:10;;;;;;;49.83;22.53;;;13.90;37.90;;;;;;5043989;28;20492;-58
2022/05/08 05:34:38;;;;;;;47.03;21.27;;;14.00;37.20;;;;;;5047762;28;20492;-58
2022/05/08 05:37:06;;;;;;;45.50;21.03;;;14.10;37.20;;;;;;5044014;28;20473;-61
2022/05/08 05:39:33;;;;;;;43.70;20.50;;;14.20;36.90;;;;;;5052304;28;20542;-58
2022/05/08 05:41:59;;;;;;;45.90;21.80;;;14.40;36.70;;;;;;5040092;28;20469;-58
2022/05/08 05:44:26;;;;;;;45.23;20.87;;;14.70;36.70;;;;;;5043394;28;20482;-58
2022/05/08 05:49:39;;;;;;;42.50;18.97;;;15.30;34.80;;;;;;5053193;28;20460;-59
2022/05/08 05:52:07;;;;;;;42.87;19.17;;;15.40;34.30;;;;;;5042534;28;20485;-58
2022/05/08 05:54:35;;;;;;;45.17;18.67;;;15.80;33.80;;;;;;5045234;28;20518;-61
2022/05/08 05:57:02;;;;;;;42.43;17.17;;;16.10;32.50;;;;;;5044669;28;20463;-57
2022/05/08 05:59:29;;;;;;;43.07;18.27;;;16.30;31.40;;;;;;5050279;28;20473;-57
2022/05/08 06:01:55;;;;;;;41.73;17.93;;;16.40;30.90;;;;;;5046725;28;20485;-58
2022/05/08 06:04:22;;;;;;;43.50;18.47;;;16.50;30.70;;;;;;5038953;28;20482;-59
2022/05/08 06:06:50;;;;;;;43.80;19.77;;;16.80;30.20;;;;;;5044658;28;20465;-58
2022/05/08 06:09:17;;;;;;;43.33;18.07;;;17.10;28.80;;;;;;5048531;28;20469;-58
2022/05/08 06:11:45;;;;;;;41.60;17.67;;;17.10;28.80;;;;;;5043524;28;20553;-58
2022/05/08 06:14:12;;;;;;;43.93;19.90;;;17.00;28.60;;;;;;5038545;28;20891;-59
2022/05/08 06:16:39;;;;;;;43.83;18.00;;;16.90;28.50;;;;;;5047972;28;20496;-58
2022/05/08 06:19:06;;;;;;;40.53;18.37;;;16.80;28.60;;;;;;5050191;28;20477;-58
2022/05/08 06:21:32;;;;;;;44.13;17.93;;;16.80;28.70;;;;;;5049673;28;20469;-59
2022/05/08 06:24:01;;;;;;;41.27;18.33;;;16.80;28.90;;;;;;5041339;28;20470;-59
2022/05/08 06:26:27;;;;;;;41.67;18.40;;;16.90;29.10;;;;;;5046479;28;20470;-58
2022/05/08 06:28:55;;;;;;;45.57;20.60;;;16.90;29.10;;;;;;5051856;28;20464;-59
2022/05/08 06:31:22;;;;;;;42.40;19.80;;;17.00;29.00;;;;;;5051461;28;20995;-60
2022/05/08 06:33:49;;;;;;;42.90;20.07;;;16.90;29.20;;;;;;5043079;28;20459;-58
2022/05/08 06:36:17;;;;;;;41.40;18.67;;;16.90;29.20;;;;;;5045419;28;20845;-59
2022/05/08 06:38:43;;;;;;;43.57;19.80;;;16.90;29.50;;;;;;5054804;28;20453;-59
2022/05/08 06:41:11;;;;;;;40.70;19.20;;;17.00;29.40;;;;;;5053875;28;20461;-59
2022/05/08 06:43:40;;;;;;;41.13;18.57;;;17.20;29.40;;;;;;5043946;28;20475;-57
2022/05/08 06:46:06;;;;;;;41.53;18.60;;;17.40;29.10;;;;;;5048630;28;20505;-56
2022/05/08 06:48:33;;;;;;;41.27;17.23;;;17.60;28.70;;;;;;5057241;28;20851;-60
2022/05/08 06:51:00;;;;;;;40.40;17.47;;;17.80;28.20;;;;;;5046630;28;20474;-61
2022/05/08 06:53:27;;;;;;;44.13;19.43;;;17.90;27.20;;;;;;5046649;28;20904;-57
2022/05/08 06:55:54;;;;;;;41.40;18.30;;;18.00;26.70;;;;;;5046633;28;20575;-58
2022/05/08 06:58:24;;;;;;;41.10;18.30;;;18.20;27.20;;;;;;5053184;28;20497;-58
2022/05/08 07:03:35;;;;;;;40.63;17.10;;;18.60;25.10;;;;;;5043274;28;20500;-59
2022/05/08 07:06:02;;;;;;;39.93;16.70;;;19.00;25.90;;;;;;5040970;28;20495;-59
2022/05/08 07:08:29;;;;;;;41.57;18.37;;;19.40;24.30;;;;;;5051130;28;20473;-60
2022/05/08 07:10:56;;;;;;;38.43;16.47;;;19.70;23.50;;;;;;5049810;28;20792;-58
2022/05/08 07:13:26;;;;;;;38.60;16.33;;;20.30;22.40;;;;;;5049114;28;20465;-58
2022/05/08 07:15:53;;;;;;;38.33;16.60;;;20.70;21.60;;;;;;5039541;28;20475;-59
2022/05/08 07:18:21;;;;;;;37.77;15.13;;;21.10;20.70;;;;;;5050810;28;20466;-58
2022/05/08 07:20:48;;;;;;;37.63;14.90;;;21.20;19.40;;;;;;5055886;28;20468;-59
2022/05/08 07:23:15;;;;;;;37.73;15.23;;;21.30;19.50;;;;;;5048662;28;20493;-58
2022/05/08 07:25:42;;;;;;;37.90;15.63;;;21.40;19.00;;;;;;5040627;28;20609;-58
2022/05/08 07:28:09;;;;;;;37.73;15.93;;;21.60;18.50;;;;;;5044917;28;20458;-59
2022/05/08 07:30:37;;;;;;;37.20;15.70;;;21.80;18.00;;;;;;5052037;28;20462;-59
2022/05/08 07:33:04;;;;;;;41.17;16.40;;;22.10;17.50;;;;;;5057393;28;20463;-58
2022/05/08 07:38:23;;;;;;;40.73;16.13;;;22.00;17.10;;;;;;5005197;28;20559;-60
2022/05/08 07:40:51;;;;;;;37.63;16.13;;;21.80;17.40;;;;;;5039561;28;20467;-60
2022/05/08 07:43:17;;;;;;;39.30;16.20;;;21.60;17.60;;;;;;5044523;28;21026;-59
2022/05/08 07:45:46;;;;;;;38.57;16.33;;;21.40;18.10;;;;;;5039686;28;20493;-61
2022/05/08 07:48:13;;;;;;;38.90;16.70;;;21.20;18.10;;;;;;5042236;28;20995;-58
2022/05/08 07:50:39;;;;;;;39.47;15.77;;;21.10;18.50;;;;;;5045926;28;20459;-61
2022/05/08 07:53:06;;;;;;;38.20;16.27;;;21.00;18.60;;;;;;5047761;28;20453;-59
2022/05/08 07:55:33;;;;;;;37.40;15.50;;;20.90;18.60;;;;;;5032581;28;20493;-58
2022/05/08 07:58:00;;;;;;;37.00;15.73;;;20.80;18.90;;;;;;5041467;28;20466;-58
2022/05/08 08:00:26;;;;;;;40.87;15.83;;;20.80;19.30;;;;;;5043179;28;20490;-58
2022/05/08 08:02:55;;;;;;;38.20;15.07;;;20.90;19.50;;;;;;5051940;28;20466;-59
2022/05/08 08:05:21;;;;;;;38.00;15.23;;;21.10;18.90;;;;;;5054061;28;20827;-60
2022/05/08 08:07:48;;;;;;;36.70;15.23;;;21.30;19.00;;;;;;5039902;28;20949;-60
2022/05/08 08:10:15;;;;;;;36.00;13.57;;;21.40;18.40;;;;;;5046899;28;20469;-65
2022/05/08 08:12:42;;;;;;;38.57;16.20;;;21.60;17.60;;;;;;5052643;28;20853;-61
2022/05/08 08:15:10;;;;;;;37.07;15.57;;;21.70;17.60;;;;;;5049718;28;20497;-63
2022/05/08 08:17:37;;;;;;;36.87;14.90;;;21.90;17.70;;;;;;5046734;28;20508;-62
2022/05/08 08:20:06;;;;;;;35.43;13.17;;;22.10;17.70;;;;;;5042679;28;20462;-63
2022/05/08 08:22:33;;;;;;;35.67;13.60;;;22.40;15.80;;;;;;5055280;28;20477;-61
2022/05/08 08:25:00;;;;;;;37.77;14.23;;;22.60;16.30;;;;;;5049280;28;20493;-64
2022/05/08 08:27:27;;;;;;;35.00;13.37;;;22.90;15.80;;;;;;5044968;28;20506;-61
2022/05/08 08:29:54;;;;;;;36.73;13.33;;;23.50;15.60;;;;;;5041364;28;20504;-62
2022/05/08 08:32:22;;;;;;;35.17;13.67;;;24.20;14.70;;;;;;5049905;28;20484;-67
2022/05/08 08:34:49;;;;;;;34.67;13.20;;;24.80;13.50;;;;;;5049934;28;20547;-60
2022/05/08 08:37:17;;;;;;;35.40;13.07;;;25.50;12.20;;;;;;5039565;28;20470;-63
2022/05/08 08:39:43;;;;;;;33.57;12.53;;;25.50;10.80;;;;;;5040286;28;20537;-65
2022/05/08 08:42:19;;;;;;;33.77;12.03;;;25.90;11.30;;;;;;5046338;28;20473;-62
2022/05/08 08:47:44;;;;;;;37.67;13.63;;;26.80;7.70;;;;;;5050506;28;20465;-62
2022/05/08 08:50:12;;;;;;;34.03;13.10;;;26.50;8.90;;;;;;5042466;28;20462;-59
2022/05/08 08:52:41;;;;;;;32.57;12.20;;;27.00;9.80;;;;;;5041216;28;20466;-57
2022/05/08 08:55:09;;;;;;;33.53;12.87;;;28.00;8.50;;;;;;5047751;28;20581;-57
2022/05/08 08:57:36;;;;;;;34.47;13.30;;;28.40;7.80;;;;;;5047159;28;20458;-59
2022/05/08 09:00:04;;;;;;;32.50;12.17;;;29.00;7.70;;;;;;5038474;28;20473;-58
2022/05/08 09:02:31;;;;;;;33.33;11.40;;;29.60;5.80;;;;;;5043724;28;20477;-60
2022/05/08 09:04:58;;;;;;;32.60;11.07;;;29.90;5.20;;;;;;5049900;28;20504;-58
2022/05/08 09:07:44;;;;;;;31.90;10.47;;;30.10;4.00;;;;;;5050596;28;20497;-58
2022/05/08 09:10:13;;;;;;;31.50;11.63;;;29.80;4.00;;;;;;5044575;28;20497;-62
2022/05/08 09:12:42;;;;;;;30.20;10.23;;;29.80;3.80;;;;;;5041231;28;20466;-61
2022/05/08 09:15:19;;;;;;;30.73;11.03;;;29.70;4.20;;;;;;5043700;28;20839;-62
2022/05/08 09:17:46;;;;;;;31.47;11.10;;;29.00;5.00;;;;;;5044480;28;20484;-61
2022/05/08 09:20:30;;;;;;;33.30;11.33;;;28.70;5.00;;;;;;5037166;28;20467;-60
2022/05/08 09:23:13;;;;;;;31.10;11.40;;;29.00;5.70;;;;;;5033204;28;20461;-59
2022/05/08 09:25:44;;;;;;;32.47;12.03;;;28.30;6.00;;;;;;5047221;28;20478;-61
2022/05/08 09:28:11;;;;;;;32.97;11.23;;;27.40;6.80;;;;;;5047911;28;20454;-61
2022/05/08 09:30:54;;;;;;;31.80;10.70;;;26.60;7.60;;;;;;5036283;28;20462;-61
2022/05/08 09:33:25;;;;;;;34.27;11.30;;;25.60;8.10;;;;;;5035688;28;20507;-60
2022/05/08 09:35:52;;;;;;;35.13;11.57;;;24.70;9.80;;;;;;5027851;28;20483;-61
2022/05/08 09:38:20;;;;;;;33.63;12.63;;;24.00;11.00;;;;;;5027670;28;20970;-62
2022/05/08 09:41:05;;;;;;;32.60;11.23;;;23.50;11.70;;;;;;5035887;28;20672;-62
2022/05/08 09:43:34;;;;;;;36.70;13.93;;;22.80;13.10;;;;;;5033037;28;20462;-61
2022/05/08 09:46:02;;;;;;;33.93;12.00;;;22.20;14.20;;;;;;5041286;28;20550;-61
2022/05/08 09:48:29;;;;;;;36.10;12.50;;;21.80;15.50;;;;;;5027394;28;20883;-61
2022/05/08 09:50:58;;;;;;;34.07;12.63;;;21.80;16.30;;;;;;5035973;28;20809;-60
2022/05/08 09:53:27;;;;;;;33.10;11.40;;;22.00;16.40;;;;;;5035534;28;21010;-61
2022/05/08 09:55:54;;;;;;;35.43;12.17;;;22.00;16.40;;;;;;5027340;28;20501;-62
2022/05/08 09:58:21;;;;;;;33.87;12.10;;;22.10;16.40;;;;;;5042497;28;20462;-61
2022/05/08 10:00:48;;;;;;;34.30;12.70;;;22.70;16.00;;;;;;5037875;28;20466;-63
2022/05/08 10:03:16;;;;;;;36.57;12.33;;;23.00;15.00;;;;;;5035703;28;20458;-60
2022/05/08 10:05:43;;;;;;;33.60;12.80;;;22.50;15.20;;;;;;5051021;28;20482;-61
2022/05/08 10:08:13;;;;;;;32.97;10.93;;;22.10;16.00;;;;;;5043656;28;20450;-60
2022/05/08 10:14:00;;;;;;;34.70;13.57;;;21.50;16.50;;;;;;5041869;28;20466;-59
2022/05/08 10:16:46;;;;;;;33.37;11.40;;;21.30;17.60;;;;;;5054723;28;20990;-60
2022/05/08 10:19:56;;;;;;;33.87;10.57;;;21.40;18.20;;;;;;5038730;28;20971;-60
2022/05/08 10:22:24;;;;;;;32.90;10.73;;;21.50;18.30;;;;;;5032722;28;20467;-60
2022/05/08 10:24:55;;;;;;;32.23;10.50;;;21.60;17.30;;;;;;5042967;28;20474;-60
2022/05/08 10:27:25;;;;;;;32.60;10.57;;;21.60;16.80;;;;;;5042946;28;20454;-59
2022/05/08 10:30:29;;;;;;;33.67;10.97;;;21.90;16.80;;;;;;5050855;28;20462;-59
2022/05/08 10:32:56;;;;;;;34.47;11.27;;;22.30;16.30;;;;;;5047977;28;20527;-59
2022/05/08 10:35:25;;;;;;;32.73;9.67;;;22.50;16.10;;;;;;5041882;28;20502;-61
2022/05/08 10:37:53;;;;;;;32.77;10.83;;;22.50;15.30;;;;;;5050697;28;20460;-61
2022/05/08 10:40:33;;;;;;;33.23;10.57;;;22.40;15.50;;;;;;5041351;28;20462;-61
2022/05/08 10:43:30;;;;;;;32.60;9.80;;;22.30;16.00;;;;;;5029942;28;20461;-60
2022/05/08 10:46:19;;;;;;;36.27;10.67;;;22.00;15.40;;;;;;5045314;28;20558;-58
2022/05/08 10:48:45;;;;;;;32.67;9.97;;;21.70;15.90;;;;;;5038207;28;20467;-61
2022/05/08 10:51:13;;;;;;;33.00;9.63;;;21.50;16.50;;;;;;5030417;28;20485;-62
2022/05/08 10:53:41;;;;;;;32.63;9.13;;;21.50;16.40;;;;;;5050207;28;20446;-59
2022/05/08 10:56:09;;;;;;;33.67;9.40;;;21.50;15.90;;;;;;5042290;28;21103;-60
2022/05/08 10:58:40;;;;;;;31.17;8.97;;;21.30;16.00;;;;;;5049387;28;20461;-61
2022/05/08 11:01:10;;;;;;;32.30;8.73;;;21.10;15.80;;;;;;5041600;28;20467;-61
2022/05/08 11:03:37;;;;;;;33.00;8.70;;;21.10;16.50;;;;;;5048184;28;21009;-64
2022/05/08 11:06:06;;;;;;;32.20;9.10;;;21.10;16.20;;;;;;5048330;28;20607;-62
2022/05/08 11:08:33;;;;;;;30.50;8.43;;;20.80;16.50;;;;;;5050193;28;20465;-63
2022/05/08 11:11:08;;;;;;;31.57;8.90;;;20.50;17.20;;;;;;5043623;28;20465;-60
2022/05/08 11:13:48;;;;;;;32.13;10.07;;;20.30;18.10;;;;;;5040118;28;21099;-60
2022/05/08 11:16:29;;;;;;;34.60;9.37;;;20.10;18.70;;;;;;5042365;28;20582;-62
2022/05/08 11:18:59;;;;;;;34.17;10.70;;;19.80;19.30;;;;;;5050416;28;20486;-59
2022/05/08 11:21:26;;;;;;;32.67;10.50;;;19.60;20.00;;;;;;5048095;28;20493;-62
2022/05/08 11:23:54;;;;;;;36.27;10.60;;;19.50;21.10;;;;;;5042862;28;20948;-61
2022/05/08 11:26:28;;;;;;;31.93;9.23;;;19.30;21.80;;;;;;5041118;28;20834;-61
2022/05/08 11:28:57;;;;;;;32.47;10.30;;;19.10;21.60;;;;;;5030035;28;20459;-62
2022/05/08 11:31:25;;;;;;;31.87;10.67;;;19.00;22.30;;;;;;5033820;28;20523;-59
2022/05/08 11:36:38;;;;;;;33.60;10.33;;;18.90;23.20;;;;;;5047930;28;20474;-60
2022/05/08 11:39:09;;;;;;;32.20;9.67;;;18.70;23.30;;;;;;5049585;28;20466;-61
2022/05/08 11:41:37;;;;;;;32.57;10.80;;;18.60;23.90;;;;;;5045029;28;20467;-60
2022/05/08 11:44:23;;;;;;;32.47;10.90;;;18.60;24.30;;;;;;5042426;28;20481;-60
2022/05/08 11:46:51;;;;;;;35.73;10.50;;;18.70;24.50;;;;;;5037597;28;20474;-61
2022/05/08 11:49:20;;;;;;;30.97;8.50;;;18.70;24.80;;;;;;5038227;28;20463;-63
2022/05/08 11:51:49;;;;;;;29.90;7.70;;;18.70;23.60;;;;;;5029427;28;20474;-59
2022/05/08 11:54:35;;;;;;;32.43;9.23;;;18.80;23.30;;;;;;5037411;28;20562;-60
2022/05/08 11:57:13;;;;;;;34.00;8.27;;;18.90;23.20;;;;;;5043676;28;20523;-60
2022/05/08 11:59:43;;;;;;;30.67;8.30;;;18.90;22.90;;;;;;5049174;28;20458;-61
2022/05/08 12:02:10;;;;;;;31.63;8.60;;;18.90;23.00;;;;;;5046878;28;20950;-60
2022/05/08 12:04:37;;;;;;;31.13;7.83;;;19.00;22.70;;;;;;5046579;28;20501;-63
2022/05/08 12:07:06;;;;;;;30.10;7.43;;;19.10;22.40;;;;;;5048259;28;20461;-60
2022/05/08 12:09:34;;;;;;;31.17;8.63;;;19.10;21.70;;;;;;5049167;28;20454;-61
2022/05/08 12:12:25;;;;;;;29.77;8.27;;;19.00;21.30;;;;;;5048434;28;20462;-61
2022/05/08 12:14:55;;;;;;;31.37;9.43;;;19.00;22.00;;;;;;5047893;28;20485;-59
2022/05/08 12:17:21;;;;;;;32.40;9.63;;;19.00;22.70;;;;;;5043276;28;20894;-59
2022/05/08 12:19:53;;;;;;;32.40;9.80;;;19.10;22.20;;;;;;5045561;28;20466;-61
2022/05/08 12:22:21;;;;;;;32.30;9.43;;;19.10;21.90;;;;;;5043900;28;20466;-60
2022/05/08 12:24:48;;;;;;;33.70;9.70;;;19.10;22.00;;;;;;5041014;28;21095;-61
2022/05/08 12:27:15;;;;;;;32.30;9.83;;;19.30;22.10;;;;;;5041919;28;20455;-60
2022/05/08 12:29:44;;;;;;;32.37;9.60;;;19.40;22.00;;;;;;5041546;28;20477;-62
2022/05/08 12:32:13;;;;;;;32.30;8.57;;;19.60;20.90;;;;;;5045380;28;21016;-61
2022/05/08 12:34:41;;;;;;;33.23;9.07;;;19.80;20.80;;;;;;5044206;28;20508;-61
2022/05/08 12:37:09;;;;;;;30.23;8.50;;;20.20;20.10;;;;;;5044765;28;20477;-59
2022/05/08 12:39:36;;;;;;;31.93;8.53;;;20.40;19.70;;;;;;5046126;28;20477;-62
2022/05/08 12:42:04;;;;;;;31.30;8.70;;;20.60;19.60;;;;;;5045306;28;20478;-60
2022/05/08 12:44:30;;;;;;;31.73;8.37;;;20.80;19.60;;;;;;5045581;28;20505;-62
2022/05/08 12:46:58;;;;;;;30.60;8.53;;;21.00;19.20;;;;;;5039642;28;20459;-60
2022/05/08 12:49:26;;;;;;;32.97;8.77;;;21.00;18.60;;;;;;5043118;28;20454;-62
2022/05/08 12:51:52;;;;;;;30.80;8.07;;;20.80;18.90;;;;;;5044796;28;20983;-61
2022/05/08 12:54:19;;;;;;;34.20;8.57;;;20.60;18.50;;;;;;5041444;28;20481;-63
2022/05/08 12:56:46;;;;;;;31.00;8.73;;;20.40;19.10;;;;;;5045106;28;20493;-63
2022/05/08 13:01:57;;;;;;;32.30;10.33;;;19.90;20.00;;;;;;5038686;28;20859;-59
2022/05/08 13:04:25;;;;;;;33.37;9.83;;;19.70;20.80;;;;;;5044511;28;21157;-60
2022/05/08 13:06:52;;;;;;;32.77;9.70;;;19.60;20.70;;;;;;5044397;28;20513;-60